• Join FlightAware (Why Join?)
  • Login
  • US Flag 
08:44AM EDT


 

Airport Tracker/Info


-or-


 

Live Flight TrackerFlight Track Log ✈ FLG3952 ✈ 06-Jan-2014 ✈ KFNT - KDTW

Flight Track Log - Related Links

Times and Time Zones

All times are in EST time to prevent confusion due to time zone crossing. See the FLG3952 flight status page for this flight to view local times or setup timezone preferences in your user account.

Time Position Orientation Groundspeed Altitude Reporting Facility
EST Latitude Longitude Course Direction KTS MPH feet Rate Location/Type
06:44AM 42.9658 -83.7950 240° Southwest 131 151 2,900  Level Cleveland Center
06:44AM 42.9511 -83.8303 240° Southwest 208 239 4,600 2,100 Climbing Cleveland Center
06:45AM 42.9236 -83.8333 185° South 243 280 5,000 420 Climbing Cleveland Center
06:45AM 42.8981 -83.8108 147° Southeast 277 319 5,000 60 Level Cleveland Center
06:46AM 42.8642 -83.7667 136° Southeast 267 307 5,100  Climbing Cleveland Center
06:46AM 42.8367 -83.7389 143° Southeast 273 314 5,000 -120 Descending Cleveland Center
06:47AM 42.8028 -83.7150 153° Southeast 264 304 5,000  Level Cleveland Center
06:47AM 42.7708 -83.6978 158° South 259 298 5,000 60 Level Cleveland Center
06:48AM 42.7333 -83.6736 155° Southeast 263 303 5,100  Climbing Cleveland Center
06:48AM 42.7169 -83.6644 158° South 264 304 5,000 -120 Descending Cleveland Center
06:49AM 42.6639 -83.5942 136° Southeast 274 315 5,000  Level Cleveland Center
06:50AM 42.6336 -83.5439 129° Southeast 274 315 5,000 -120 Level Cleveland Center
06:50AM 42.6178 -83.5136 125° Southeast 259 298 4,900  Descending Cleveland Center
06:51AM 42.5908 -83.4500 120° Southeast 252 290 5,000 60 Climbing Cleveland Center
06:51AM 42.5856 -83.4436 138° Southeast 236 272 5,000 60 Level Cleveland Center
06:52AM 42.5561 -83.3722 119° Southeast 242 278 5,100  Climbing Cleveland Center
06:52AM 42.5517 -83.3681 145° Southeast 241 277 5,000  Descending Cleveland Center
06:53AM 42.5197 -83.2939 120° Southeast 243 280 5,100  Climbing Cleveland Center
06:53AM 42.5158 -83.2892 138° Southeast 245 282 5,000 -420 Descending Cleveland Center
06:54AM 42.4614 -83.2569 156° South 235 270 4,700 -540 Descending Cleveland Center
06:54AM 42.4539 -83.2522 155° Southeast 222 255 4,500 -600 Descending Cleveland Center
06:55AM 42.4050 -83.2258 158° South 222 255 4,100 -540 Descending Cleveland Center
06:55AM 42.3972 -83.2244 172° South 214 246 4,000 -540 Descending Cleveland Center
06:56AM 42.3514 -83.2328 188° South 203 234 3,600 -540 Descending Cleveland Center
06:56AM 42.3461 -83.2372 212° Southwest 176 203 3,500 -600 Descending Cleveland Center
06:57AM 42.3103 -83.2681 212° Southwest 184 212 3,000 -780 Descending Cleveland Center
06:57AM 42.2992 -83.2758 207° Southwest 163 188 2,700 -900 Descending Cleveland Center
06:58AM 42.2736 -83.2953 209° Southwest 166 191 2,100 -900 Descending Cleveland Center
06:58AM 42.2658 -83.2994 202° Southwest 121 139 1,800 -720 Descending Cleveland Center
06:59AM 42.2450 -83.3156 210° Southwest 134 154 1,400 -720 Descending Cleveland Center
06:59AM 42.2369 -83.3208 206° Southwest 121 139 1,100 -300 Descending Cleveland Center
07:00AM 42.2175 -83.3358 210° Southwest 129 148 1,100  Level Cleveland Center